sensor_id;sensor_type;location;lat;lon;timestamp;pressure;altitude;pressure_sealevel;temperature;humidity
47104;BME280;32853;52.164;5.400;2022-12-13T00:00:05;101247.97;;;-0.70;100.00
47104;BME280;32853;52.164;5.400;2022-12-13T00:02:47;101252.25;;;-0.69;100.00
47104;BME280;32853;52.164;5.400;2022-12-13T00:05:13;101248.78;;;-0.75;100.00
47104;BME280;32853;52.164;5.400;2022-12-13T00:07:48;101245.34;;;-0.74;100.00
47104;BME280;32853;52.164;5.400;2022-12-13T00:10:13;101240.22;;;-0.74;100.00
47104;BME280;32853;52.164;5.400;2022-12-13T00:12:39;101241.06;;;-0.77;100.00
47104;BME280;32853;52.164;5.400;2022-12-13T00:15:19;101240.19;;;-0.77;100.00
47104;BME280;32853;52.164;5.400;2022-12-13T00:17:44;101240.13;;;-0.82;100.00
47104;BME280;32853;52.164;5.400;2022-12-13T00:23:19;101241.84;;;-0.79;100.00
47104;BME280;32853;52.164;5.400;2022-12-13T00:28:42;101226.41;;;-0.82;100.00
47104;BME280;32853;52.164;5.400;2022-12-13T00:31:13;101227.22;;;-0.86;100.00
47104;BME280;32853;52.164;5.400;2022-12-13T00:33:38;101230.72;;;-0.80;100.00
47104;BME280;32853;52.164;5.400;2022-12-13T00:36:04;101223.81;;;-0.85;100.00
47104;BME280;32853;52.164;5.400;2022-12-13T00:41:08;101222.03;;;-0.90;100.00
47104;BME280;32853;52.164;5.400;2022-12-13T00:43:36;101220.38;;;-0.86;100.00
47104;BME280;32853;52.164;5.400;2022-12-13T00:46:06;101216.13;;;-0.85;100.00
47104;BME280;32853;52.164;5.400;2022-12-13T00:48:31;101209.25;;;-0.86;100.00
47104;BME280;32853;52.164;5.400;2022-12-13T00:50:56;101213.44;;;-0.92;100.00
47104;BME280;32853;52.164;5.400;2022-12-13T00:53:22;101216.00;;;-0.93;100.00
47104;BME280;32853;52.164;5.400;2022-12-13T00:55:53;101206.59;;;-0.94;100.00
47104;BME280;32853;52.164;5.400;2022-12-13T00:58:21;101220.25;;;-0.97;100.00
47104;BME280;32853;52.164;5.400;2022-12-13T01:00:46;101210.75;;;-1.02;100.00
47104;BME280;32853;52.164;5.400;2022-12-13T01:03:12;101210.75;;;-1.01;100.00
47104;BME280;32853;52.164;5.400;2022-12-13T01:05:49;101205.59;;;-1.05;100.00
47104;BME280;32853;52.164;5.400;2022-12-13T01:08:15;101207.28;;;-1.07;100.00
47104;BME280;32853;52.164;5.400;2022-12-13T01:10:43;101207.34;;;-1.01;100.00
47104;BME280;32853;52.164;5.400;2022-12-13T01:13:09;101210.59;;;-1.13;100.00
47104;BME280;32853;52.164;5.400;2022-12-13T01:15:40;101209.00;;;-1.05;100.00
47104;BME280;32853;52.164;5.400;2022-12-13T01:18:06;101214.09;;;-1.09;100.00
47104;BME280;32853;52.164;5.400;2022-12-13T01:20:31;101214.09;;;-1.09;100.00
47104;BME280;32853;52.164;5.400;2022-12-13T01:23:00;101211.53;;;-1.08;100.00
47104;BME280;32853;52.164;5.400;2022-12-13T01:28:17;101213.16;;;-1.14;100.00
47104;BME280;32853;52.164;5.400;2022-12-13T01:30:42;101211.66;;;-0.99;100.00
47104;BME280;32853;52.164;5.400;2022-12-13T01:33:07;101208.13;;;-1.07;100.00
47104;BME280;32853;52.164;5.400;2022-12-13T01:35:35;101204.63;;;-1.12;100.00
47104;BME280;32853;52.164;5.400;2022-12-13T01:38:05;101203.72;;;-1.15;100.00
47104;BME280;32853;52.164;5.400;2022-12-13T01:40:44;101205.34;;;-1.22;100.00
47104;BME280;32853;52.164;5.400;2022-12-13T01:43:16;101210.41;;;-1.28;100.00
47104;BME280;32853;52.164;5.400;2022-12-13T01:45:42;101201.75;;;-1.33;100.00
47104;BME280;32853;52.164;5.400;2022-12-13T01:48:15;101201.69;;;-1.38;100.00
47104;BME280;32853;52.164;5.400;2022-12-13T01:50:42;101198.38;;;-1.32;100.00
47104;BME280;32853;52.164;5.400;2022-12-13T01:53:16;101204.28;;;-1.36;100.00
47104;BME280;32853;52.164;5.400;2022-12-13T01:55:43;101197.47;;;-1.34;100.00
47104;BME280;32853;52.164;5.400;2022-12-13T01:58:12;101196.84;;;-1.18;100.00
47104;BME280;32853;52.164;5.400;2022-12-13T02:00:38;101201.91;;;-1.23;100.00
47104;BME280;32853;52.164;5.400;2022-12-13T02:03:16;101202.69;;;-1.28;100.00
47104;BME280;32853;52.164;5.400;2022-12-13T02:05:51;101201.88;;;-1.26;100.00
47104;BME280;32853;52.164;5.400;2022-12-13T02:11:28;101207.84;;;-1.28;100.00
47104;BME280;32853;52.164;5.400;2022-12-13T02:13:53;101199.25;;;-1.30;100.00
47104;BME280;32853;52.164;5.400;2022-12-13T02:21:59;101196.56;;;-1.39;100.00
47104;BME280;32853;52.164;5.400;2022-12-13T02:37:29;101203.09;;;-1.60;100.00
47104;BME280;32853;52.164;5.400;2022-12-13T02:40:12;101201.22;;;-1.68;100.00
47104;BME280;32853;52.164;5.400;2022-12-13T02:42:42;101190.09;;;-1.69;100.00
47104;BME280;32853;52.164;5.400;2022-12-13T02:45:09;101182.53;;;-1.61;100.00
47104;BME280;32853;52.164;5.400;2022-12-13T02:47:37;101181.59;;;-1.66;100.00
47104;BME280;32853;52.164;5.400;2022-12-13T02:50:05;101177.41;;;-1.61;100.00
47104;BME280;32853;52.164;5.400;2022-12-13T02:52:37;101182.56;;;-1.60;100.00
47104;BME280;32853;52.164;5.400;2022-12-13T02:55:07;101190.28;;;-1.58;100.00
47104;BME280;32853;52.164;5.400;2022-12-13T02:57:50;101191.97;;;-1.59;100.00
47104;BME280;32853;52.164;5.400;2022-12-13T03:10:21;101178.25;;;-1.64;100.00
47104;BME280;32853;52.164;5.400;2022-12-13T03:18:30;101175.72;;;-1.61;100.00
47104;BME280;32853;52.164;5.400;2022-12-13T03:20:58;101173.97;;;-1.63;100.00
47104;BME280;32853;52.164;5.400;2022-12-13T03:23:23;101168.03;;;-1.61;100.00
47104;BME280;32853;52.164;5.400;2022-12-13T03:25:50;101173.88;;;-1.68;100.00
47104;BME280;32853;52.164;5.400;2022-12-13T03:28:16;101180.72;;;-1.68;100.00
47104;BME280;32853;52.164;5.400;2022-12-13T03:33:33;101177.34;;;-1.66;100.00
47104;BME280;32853;52.164;5.400;2022-12-13T03:35:58;101183.31;;;-1.67;100.00
47104;BME280;32853;52.164;5.400;2022-12-13T03:38:24;101184.97;;;-1.70;100.00
47104;BME280;32853;52.164;5.400;2022-12-13T03:40:55;101182.34;;;-1.75;100.00
47104;BME280;32853;52.164;5.400;2022-12-13T03:43:27;101170.53;;;-1.64;100.00
47104;BME280;32853;52.164;5.400;2022-12-13T03:46:03;101173.03;;;-1.67;100.00
47104;BME280;32853;52.164;5.400;2022-12-13T03:48:29;101163.38;;;-1.86;100.00
47104;BME280;32853;52.164;5.400;2022-12-13T03:50:55;101174.53;;;-1.81;100.00
47104;BME280;32853;52.164;5.400;2022-12-13T03:53:21;101177.88;;;-1.87;100.00
47104;BME280;32853;52.164;5.400;2022-12-13T03:55:46;101163.38;;;-1.86;100.00
47104;BME280;32853;52.164;5.400;2022-12-13T03:58:14;101179.66;;;-1.83;100.00
47104;BME280;32853;52.164;5.400;2022-12-13T04:00:43;101174.50;;;-1.84;100.00
47104;BME280;32853;52.164;5.400;2022-12-13T04:03:08;101178.75;;;-1.86;100.00
47104;BME280;32853;52.164;5.400;2022-12-13T04:05:34;101179.00;;;-1.69;100.00
47104;BME280;32853;52.164;5.400;2022-12-13T04:07:59;101168.59;;;-1.79;100.00
47104;BME280;32853;52.164;5.400;2022-12-13T04:10:30;101171.03;;;-1.88;100.00
47104;BME280;32853;52.164;5.400;2022-12-13T04:12:58;101172.81;;;-1.82;100.00
47104;BME280;32853;52.164;5.400;2022-12-13T04:15:45;101172.81;;;-1.82;100.00
47104;BME280;32853;52.164;5.400;2022-12-13T04:18:19;101172.69;;;-1.90;100.00
47104;BME280;32853;52.164;5.400;2022-12-13T04:20:45;101166.84;;;-1.81;100.00
47104;BME280;32853;52.164;5.400;2022-12-13T04:23:10;101160.88;;;-1.80;100.00
47104;BME280;32853;52.164;5.400;2022-12-13T04:28:04;101175.22;;;-1.91;100.00
47104;BME280;32853;52.164;5.400;2022-12-13T04:30:29;101181.06;;;-2.00;100.00
47104;BME280;32853;52.164;5.400;2022-12-13T04:32:54;101172.56;;;-1.97;100.00
47104;BME280;32853;52.164;5.400;2022-12-13T04:35:27;101175.88;;;-2.03;100.00
47104;BME280;32853;52.164;5.400;2022-12-13T04:37:53;101167.28;;;-2.07;100.00
47104;BME280;32853;52.164;5.400;2022-12-13T04:40:18;101170.75;;;-2.05;100.00
47104;BME280;32853;52.164;5.400;2022-12-13T04:42:43;101168.22;;;-2.01;100.00
47104;BME280;32853;52.164;5.400;2022-12-13T04:45:14;101164.81;;;-2.00;100.00
47104;BME280;32853;52.164;5.400;2022-12-13T04:47:39;101161.28;;;-2.09;100.00
47104;BME280;32853;52.164;5.400;2022-12-13T04:50:04;101163.84;;;-2.10;100.00
47104;BME280;32853;52.164;5.400;2022-12-13T04:52:32;101160.50;;;-2.05;100.00
47104;BME280;32853;52.164;5.400;2022-12-13T04:54:57;101158.00;;;-2.00;100.00
47104;BME280;32853;52.164;5.400;2022-12-13T04:57:22;101149.53;;;-1.96;100.00
47104;BME280;32853;52.164;5.400;2022-12-13T04:59:56;101151.94;;;-2.05;100.00
47104;BME280;32853;52.164;5.400;2022-12-13T05:02:21;101151.09;;;-2.06;100.00
47104;BME280;32853;52.164;5.400;2022-12-13T05:04:47;101150.25;;;-2.05;100.00
47104;BME280;32853;52.164;5.400;2022-12-13T05:07:12;101150.25;;;-2.03;100.00
47104;BME280;32853;52.164;5.400;2022-12-13T05:09:37;101145.91;;;-2.09;100.00
47104;BME280;32853;52.164;5.400;2022-12-13T05:12:15;101141.69;;;-2.05;100.00
47104;BME280;32853;52.164;5.400;2022-12-13T05:14:40;101132.25;;;-2.08;100.00
47104;BME280;32853;52.164;5.400;2022-12-13T05:17:05;101133.97;;;-2.07;100.00
47104;BME280;32853;52.164;5.400;2022-12-13T05:19:32;101134.84;;;-2.06;100.00
47104;BME280;32853;52.164;5.400;2022-12-13T05:22:01;101130.56;;;-2.07;100.00
47104;BME280;32853;52.164;5.400;2022-12-13T05:24:26;101128.84;;;-2.08;100.00
47104;BME280;32853;52.164;5.400;2022-12-13T05:26:51;101119.38;;;-2.11;100.00
47104;BME280;32853;52.164;5.400;2022-12-13T05:29:24;101125.41;;;-2.10;100.00
47104;BME280;32853;52.164;5.400;2022-12-13T05:31:51;101129.59;;;-2.12;100.00
47104;BME280;32853;52.164;5.400;2022-12-13T05:34:16;101126.16;;;-2.14;100.00
47104;BME280;32853;52.164;5.400;2022-12-13T05:36:41;101128.75;;;-2.13;100.00
47104;BME280;32853;52.164;5.400;2022-12-13T05:39:08;101131.25;;;-2.16;100.00
47104;BME280;32853;52.164;5.400;2022-12-13T05:41:35;101124.47;;;-2.14;100.00
47104;BME280;32853;52.164;5.400;2022-12-13T05:44:02;101124.56;;;-2.09;100.00
47104;BME280;32853;52.164;5.400;2022-12-13T05:46:33;101132.81;;;-2.24;100.00
47104;BME280;32853;52.164;5.400;2022-12-13T05:48:58;101129.34;;;-2.29;100.00
47104;BME280;32853;52.164;5.400;2022-12-13T05:51:31;101125.91;;;-2.31;100.00
47104;BME280;32853;52.164;5.400;2022-12-13T05:54:05;101122.41;;;-2.35;100.00
47104;BME280;32853;52.164;5.400;2022-12-13T05:56:42;101117.38;;;-2.30;100.00
47104;BME280;32853;52.164;5.400;2022-12-13T05:59:20;101119.91;;;-2.31;100.00
47104;BME280;32853;52.164;5.400;2022-12-13T06:04:22;101125.78;;;-2.36;100.00
47104;BME280;32853;52.164;5.400;2022-12-13T06:06:47;101125.75;;;-2.39;100.00
47104;BME280;32853;52.164;5.400;2022-12-13T06:09:12;101125.78;;;-2.37;100.00
47104;BME280;32853;52.164;5.400;2022-12-13T06:11:43;101131.78;;;-2.35;100.00
47104;BME280;32853;52.164;5.400;2022-12-13T06:14:10;101126.69;;;-2.34;100.00
47104;BME280;32853;52.164;5.400;2022-12-13T06:16:42;101126.78;;;-2.29;100.00
47104;BME280;32853;52.164;5.400;2022-12-13T06:19:21;101125.75;;;-2.39;100.00
47104;BME280;32853;52.164;5.400;2022-12-13T06:21:49;101130.03;;;-2.38;100.00
47104;BME280;32853;52.164;5.400;2022-12-13T06:24:16;101122.38;;;-2.36;100.00
47104;BME280;32853;52.164;5.400;2022-12-13T06:26:42;101122.28;;;-2.42;100.00
47104;BME280;32853;52.164;5.400;2022-12-13T06:29:12;101122.28;;;-2.42;100.00
47104;BME280;32853;52.164;5.400;2022-12-13T06:31:40;101115.47;;;-2.42;100.00
47104;BME280;32853;52.164;5.400;2022-12-13T06:34:08;101114.66;;;-2.39;100.00
47104;BME280;32853;52.164;5.400;2022-12-13T06:36:34;101113.75;;;-2.43;100.00
47104;BME280;32853;52.164;5.400;2022-12-13T06:39:03;101107.75;;;-2.43;100.00
47104;BME280;32853;52.164;5.400;2022-12-13T06:41:28;101113.84;;;-2.37;100.00
47104;BME280;32853;52.164;5.400;2022-12-13T06:43:53;101118.09;;;-2.37;100.00
47104;BME280;32853;52.164;5.400;2022-12-13T06:46:18;101107.81;;;-2.40;100.00
47104;BME280;32853;52.164;5.400;2022-12-13T06:48:44;101109.41;;;-2.45;100.00
47104;BME280;32853;52.164;5.400;2022-12-13T06:51:09;101112.94;;;-2.40;100.00
47104;BME280;32853;52.164;5.400;2022-12-13T06:53:35;101113.84;;;-2.37;100.00
47104;BME280;32853;52.164;5.400;2022-12-13T06:56:05;101122.34;;;-2.38;100.00
47104;BME280;32853;52.164;5.400;2022-12-13T06:58:31;101127.63;;;-2.30;100.00
47104;BME280;32853;52.164;5.400;2022-12-13T07:01:00;101124.19;;;-2.30;100.00
47104;BME280;32853;52.164;5.400;2022-12-13T07:03:28;101123.16;;;-2.42;100.00
47104;BME280;32853;52.164;5.400;2022-12-13T07:05:55;101127.44;;;-2.41;100.00
47104;BME280;32853;52.164;5.400;2022-12-13T07:11:19;101145.25;;;-2.47;100.00
47104;BME280;32853;52.164;5.400;2022-12-13T07:13:44;101136.66;;;-2.49;100.00
47104;BME280;32853;52.164;5.400;2022-12-13T07:16:10;101138.38;;;-2.49;100.00
47104;BME280;32853;52.164;5.400;2022-12-13T07:18:36;101132.31;;;-2.54;100.00
47104;BME280;32853;52.164;5.400;2022-12-13T07:21:11;101133.22;;;-2.51;100.00
47104;BME280;32853;52.164;5.400;2022-12-13T07:23:42;101128.09;;;-2.51;100.00
47104;BME280;32853;52.164;5.400;2022-12-13T07:26:08;101127.22;;;-2.53;100.00
47104;BME280;32853;52.164;5.400;2022-12-13T07:28:36;101125.50;;;-2.54;100.00
47104;BME280;32853;52.164;5.400;2022-12-13T07:31:03;101137.47;;;-2.51;100.00
47104;BME280;32853;52.164;5.400;2022-12-13T07:33:38;101145.22;;;-2.48;100.00
47104;BME280;32853;52.164;5.400;2022-12-13T07:38:31;101140.22;;;-2.42;100.00
47104;BME280;32853;52.164;5.400;2022-12-13T07:40:56;101143.66;;;-2.40;100.00
47104;BME280;32853;52.164;5.400;2022-12-13T07:43:22;101149.69;;;-2.37;100.00
47104;BME280;32853;52.164;5.400;2022-12-13T07:45:51;101156.63;;;-2.31;100.00
47104;BME280;32853;52.164;5.400;2022-12-13T07:48:16;101157.53;;;-2.29;100.00
47104;BME280;32853;52.164;5.400;2022-12-13T07:50:42;101148.81;;;-2.37;100.00
47104;BME280;32853;52.164;5.400;2022-12-13T07:53:10;101158.22;;;-2.36;100.00
47104;BME280;32853;52.164;5.400;2022-12-13T07:55:36;101152.22;;;-2.38;100.00
47104;BME280;32853;52.164;5.400;2022-12-13T07:58:08;101158.22;;;-2.38;100.00
47104;BME280;32853;52.164;5.400;2022-12-13T08:00:35;101157.38;;;-2.37;100.00
47104;BME280;32853;52.164;5.400;2022-12-13T08:03:00;101165.16;;;-2.32;100.00
47104;BME280;32853;52.164;5.400;2022-12-13T08:05:26;101161.66;;;-2.36;100.00
47104;BME280;32853;52.164;5.400;2022-12-13T08:07:51;101165.91;;;-2.38;100.00
47104;BME280;32853;52.164;5.400;2022-12-13T08:10:20;101165.00;;;-2.40;100.00
47104;BME280;32853;52.164;5.400;2022-12-13T08:12:45;101164.28;;;-2.32;100.00
47104;BME280;32853;52.164;5.400;2022-12-13T08:15:13;101165.09;;;-2.35;100.00
47104;BME280;32853;52.164;5.400;2022-12-13T08:17:41;101164.31;;;-2.31;100.00
47104;BME280;32853;52.164;5.400;2022-12-13T08:20:10;101166.03;;;-2.30;100.00
47104;BME280;32853;52.164;5.400;2022-12-13T08:22:35;101161.66;;;-2.36;100.00
47104;BME280;32853;52.164;5.400;2022-12-13T08:25:01;101164.19;;;-2.37;100.00
47104;BME280;32853;52.164;5.400;2022-12-13T08:27:33;101156.50;;;-2.39;100.00
47104;BME280;32853;52.164;5.400;2022-12-13T08:29:59;101169.31;;;-2.37;100.00
47104;BME280;32853;52.164;5.400;2022-12-13T08:32:24;101165.91;;;-2.36;100.00
47104;BME280;32853;52.164;5.400;2022-12-13T08:34:49;101176.97;;;-2.39;100.00
47104;BME280;32853;52.164;5.400;2022-12-13T08:37:15;101176.16;;;-2.36;100.00
47104;BME280;32853;52.164;5.400;2022-12-13T08:39:44;101179.72;;;-2.29;100.00
47104;BME280;32853;52.164;5.400;2022-12-13T08:42:13;101177.34;;;-2.19;100.00
47104;BME280;32853;52.164;5.400;2022-12-13T08:44:38;101180.78;;;-2.17;100.00
47104;BME280;32853;52.164;5.400;2022-12-13T08:47:04;101177.41;;;-2.14;100.00
47104;BME280;32853;52.164;5.400;2022-12-13T08:49:32;101177.44;;;-2.11;100.00
47104;BME280;32853;52.164;5.400;2022-12-13T08:52:01;101180.94;;;-2.08;100.00
47104;BME280;32853;52.164;5.400;2022-12-13T08:54:26;101179.44;;;-1.96;100.00
47104;BME280;32853;52.164;5.400;2022-12-13T08:56:52;101165.78;;;-1.95;100.00
47104;BME280;32853;52.164;5.400;2022-12-13T08:59:21;101170.97;;;-1.89;100.00
47104;BME280;32853;52.164;5.400;2022-12-13T09:01:48;101169.38;;;-1.83;100.00
47104;BME280;32853;52.164;5.400;2022-12-13T09:04:13;101179.63;;;-1.84;100.00
47104;BME280;32853;52.164;5.400;2022-12-13T09:06:40;101177.97;;;-1.81;100.00
47104;BME280;32853;52.164;5.400;2022-12-13T09:09:06;101175.50;;;-1.74;100.00
47104;BME280;32853;52.164;5.400;2022-12-13T09:11:34;101173.91;;;-1.66;100.00
47104;BME280;32853;52.164;5.400;2022-12-13T09:16:31;101175.72;;;-1.61;100.00
47104;BME280;32853;52.164;5.400;2022-12-13T09:19:00;101182.53;;;-1.63;100.00
47104;BME280;32853;52.164;5.400;2022-12-13T09:21:25;101179.09;;;-1.63;100.00
47104;BME280;32853;52.164;5.400;2022-12-13T09:23:50;101176.56;;;-1.62;100.00
47104;BME280;32853;52.164;5.400;2022-12-13T09:26:16;101178.41;;;-1.52;100.00
47104;BME280;32853;52.164;5.400;2022-12-13T09:28:44;101185.31;;;-1.48;100.00
47104;BME280;32853;52.164;5.400;2022-12-13T09:31:13;101179.34;;;-1.47;100.00
47104;BME280;32853;52.164;5.400;2022-12-13T09:33:42;101176.91;;;-1.37;100.00
47104;BME280;32853;52.164;5.400;2022-12-13T09:36:09;101177.75;;;-1.38;100.00
47104;BME280;32853;52.164;5.400;2022-12-13T09:38:35;101180.50;;;-1.23;100.00
47104;BME280;32853;52.164;5.400;2022-12-13T09:43:50;101175.47;;;-1.19;100.00
47104;BME280;32853;52.164;5.400;2022-12-13T09:46:35;101169.56;;;-1.11;100.00
47104;BME280;32853;52.164;5.400;2022-12-13T09:49:02;101167.09;;;-1.02;100.00
47104;BME280;32853;52.164;5.400;2022-12-13T09:51:28;101162.94;;;-0.94;100.00
47104;BME280;32853;52.164;5.400;2022-12-13T09:53:55;101154.50;;;-0.85;100.00
47104;BME280;32853;52.164;5.400;2022-12-13T09:56:21;101159.66;;;-0.82;100.00
47104;BME280;32853;52.164;5.400;2022-12-13T09:58:48;101156.28;;;-0.78;100.00
47104;BME280;32853;52.164;5.400;2022-12-13T10:01:17;100875.63;;;-2.40;100.00
47104;BME280;32853;52.164;5.400;2022-12-13T10:03:43;101152.09;;;-0.70;100.00
47104;BME280;32853;52.164;5.400;2022-12-13T10:08:57;101146.22;;;-0.57;100.00
47104;BME280;32853;52.164;5.400;2022-12-13T10:11:24;101140.31;;;-0.51;100.00
47104;BME280;32853;52.164;5.400;2022-12-13T10:13:54;101140.41;;;-0.42;100.00
47104;BME280;32853;52.164;5.400;2022-12-13T10:18:49;101139.78;;;-0.18;100.00
47104;BME280;32853;52.164;5.400;2022-12-13T10:23:43;101132.94;;;-0.13;100.00
47104;BME280;32853;52.164;5.400;2022-12-13T10:26:12;101127.78;;;-0.16;100.00
47104;BME280;32853;52.164;5.400;2022-12-13T10:28:37;101127.88;;;-0.07;100.00
47104;BME280;32853;52.164;5.400;2022-12-13T10:31:03;101119.38;;;0.00;100.00
47104;BME280;32853;52.164;5.400;2022-12-13T10:33:32;101121.94;;;0.00;100.00
47104;BME280;32853;52.164;5.400;2022-12-13T10:38:51;101122.91;;;0.14;100.00
47104;BME280;32853;52.164;5.400;2022-12-13T10:44:18;101113.47;;;0.16;100.00
47104;BME280;32853;52.164;5.400;2022-12-13T10:46:48;101107.47;;;0.16;100.00
47104;BME280;32853;52.164;5.400;2022-12-13T10:50:16;101113.53;;;0.22;100.00
47104;BME280;32853;52.164;5.400;2022-12-13T10:54:49;101115.41;;;0.48;100.00
47104;BME280;32853;52.164;5.400;2022-12-13T10:57:17;101110.25;;;0.46;100.00
47104;BME280;32853;52.164;5.400;2022-12-13T10:59:47;101106.81;;;0.49;100.00
47104;BME280;32853;52.164;5.400;2022-12-13T11:02:24;101109.38;;;0.46;100.00
47104;BME280;32853;52.164;5.400;2022-12-13T11:04:58;101108.47;;;0.38;100.00
47104;BME280;32853;52.164;5.400;2022-12-13T11:07:28;101101.69;;;0.53;100.00
47104;BME280;32853;52.164;5.400;2022-12-13T11:09:54;101101.66;;;0.47;100.00
47104;BME280;32853;52.164;5.400;2022-12-13T11:12:21;101105.97;;;0.47;100.00
47104;BME280;32853;52.164;5.400;2022-12-13T11:17:16;101096.53;;;0.47;100.00
47104;BME280;32853;52.164;5.400;2022-12-13T11:19:49;101094.81;;;0.45;100.00
47104;BME280;32853;52.164;5.400;2022-12-13T11:22:36;101093.09;;;0.53;100.00
47104;BME280;32853;52.164;5.400;2022-12-13T11:25:36;101090.56;;;0.57;100.00
47104;BME280;32853;52.164;5.400;2022-12-13T11:30:50;101100.94;;;0.71;100.00
47104;BME280;32853;52.164;5.400;2022-12-13T11:33:36;101094.06;;;0.69;100.00
47104;BME280;32853;52.164;5.400;2022-12-13T11:36:20;101093.22;;;0.77;100.00
47104;BME280;32853;52.164;5.400;2022-12-13T11:41:27;101088.06;;;0.71;100.00
47104;BME280;32853;52.164;5.400;2022-12-13T11:43:56;101084.63;;;0.68;100.00
47104;BME280;32853;52.164;5.400;2022-12-13T11:46:57;101065.75;;;0.73;100.00
47104;BME280;32853;52.164;5.400;2022-12-13T11:49:18;101076.91;;;0.71;100.00
47104;BME280;32853;52.164;5.400;2022-12-13T11:52:01;101067.50;;;0.79;100.00
47104;BME280;32853;52.164;5.400;2022-12-13T11:57:34;101052.88;;;0.76;100.00
47104;BME280;32853;52.164;5.400;2022-12-13T12:00:58;101058.94;;;0.84;100.00
47104;BME280;32853;52.164;5.400;2022-12-13T12:06:23;101052.97;;;0.96;100.00
47104;BME280;32853;52.164;5.400;2022-12-13T12:09:24;101052.91;;;0.85;100.00
47104;BME280;32853;52.164;5.400;2022-12-13T12:11:53;101051.19;;;0.84;100.00
47104;BME280;32853;52.164;5.400;2022-12-13T12:14:45;101046.06;;;0.86;100.00
47104;BME280;32853;52.164;5.400;2022-12-13T12:20:21;101051.25;;;1.00;100.00
47104;BME280;32853;52.164;5.400;2022-12-13T12:23:12;101052.13;;;1.02;100.00
47104;BME280;32853;52.164;5.400;2022-12-13T12:26:13;101052.09;;;0.99;100.00
47104;BME280;32853;52.164;5.400;2022-12-13T12:33:53;101060.72;;;1.07;100.00
47104;BME280;32853;52.164;5.400;2022-12-13T12:36:28;101057.25;;;0.96;100.00
47104;BME280;32853;52.164;5.400;2022-12-13T12:41:43;101059.00;;;1.09;100.00
47104;BME280;32853;52.164;5.400;2022-12-13T12:52:35;101059.81;;;0.99;100.00
47104;BME280;32853;52.164;5.400;2022-12-13T12:55:17;101062.44;;;1.05;100.00
47104;BME280;32853;52.164;5.400;2022-12-13T13:02:38;101053.00;;;1.19;100.00
47104;BME280;32853;52.164;5.400;2022-12-13T13:05:28;101046.13;;;1.21;100.00
47104;BME280;32853;52.164;5.400;2022-12-13T13:10:45;101034.13;;;1.26;100.00
47104;BME280;32853;52.164;5.400;2022-12-13T13:15:54;101032.41;;;1.16;100.00
47104;BME280;32853;52.164;5.400;2022-12-13T13:26:32;101024.69;;;1.22;100.00
47104;BME280;32853;52.164;5.400;2022-12-13T13:34:28;101020.38;;;1.15;100.00
47104;BME280;32853;52.164;5.400;2022-12-13T13:37:01;101025.53;;;1.12;100.00
47104;BME280;32853;52.164;5.400;2022-12-13T13:49:57;101002.34;;;1.21;100.00
47104;BME280;32853;52.164;5.400;2022-12-13T14:06:06;100985.19;;;1.14;100.00
47104;BME280;32853;52.164;5.400;2022-12-13T14:17:03;100986.00;;;0.99;100.00
47104;BME280;32853;52.164;5.400;2022-12-13T14:29:50;100980.03;;;1.02;100.00
47104;BME280;32853;52.164;5.400;2022-12-13T14:32:26;100979.16;;;1.07;100.00
47104;BME280;32853;52.164;5.400;2022-12-13T14:34:58;100979.16;;;1.03;100.00
47104;BME280;32853;52.164;5.400;2022-12-13T14:37:27;100968.00;;;1.04;100.00
47104;BME280;32853;52.164;5.400;2022-12-13T14:39:54;100972.25;;;0.83;100.00
47104;BME280;32853;52.164;5.400;2022-12-13T14:42:26;100964.53;;;0.99;100.00
47104;BME280;32853;52.164;5.400;2022-12-13T14:45:14;100976.56;;;0.92;100.00
47104;BME280;32853;52.164;5.400;2022-12-13T14:47:41;100971.41;;;0.91;100.00
47104;BME280;32853;52.164;5.400;2022-12-13T14:50:07;100977.44;;;0.90;100.00
47104;BME280;32853;52.164;5.400;2022-12-13T14:52:49;100970.56;;;0.98;100.00
47104;BME280;32853;52.164;5.400;2022-12-13T14:57:53;100975.69;;;0.95;100.00
47104;BME280;32853;52.164;5.400;2022-12-13T15:00:32;100979.13;;;0.81;100.00
47104;BME280;32853;52.164;5.400;2022-12-13T15:03:06;100979.09;;;0.72;100.00
47104;BME280;32853;52.164;5.400;2022-12-13T15:05:41;100969.66;;;0.74;100.00
47104;BME280;32853;52.164;5.400;2022-12-13T15:08:40;100958.50;;;0.77;100.00
47104;BME280;32853;52.164;5.400;2022-12-13T15:11:10;100964.50;;;0.77;100.00
47104;BME280;32853;52.164;5.400;2022-12-13T15:13:48;100949.91;;;0.76;100.00
47104;BME280;32853;52.164;5.400;2022-12-13T15:16:19;100949.06;;;0.76;100.00
47104;BME280;32853;52.164;5.400;2022-12-13T15:21:34;100934.47;;;0.67;100.00
47104;BME280;32853;52.164;5.400;2022-12-13T15:23:59;100933.63;;;0.67;100.00
47104;BME280;32853;52.164;5.400;2022-12-13T15:32:21;100930.13;;;0.54;100.00
47104;BME280;32853;52.164;5.400;2022-12-13T15:34:50;100928.41;;;0.53;100.00
47104;BME280;32853;52.164;5.400;2022-12-13T15:37:17;100935.31;;;0.55;100.00
47104;BME280;32853;52.164;5.400;2022-12-13T15:40:05;100930.09;;;0.43;100.00
47104;BME280;32853;52.164;5.400;2022-12-13T15:42:32;100932.72;;;0.46;100.00
47104;BME280;32853;52.164;5.400;2022-12-13T15:48:30;100931.78;;;0.29;100.00
47104;BME280;32853;52.164;5.400;2022-12-13T15:51:15;100923.22;;;0.22;100.00
47104;BME280;32853;52.164;5.400;2022-12-13T15:59:37;100912.91;;;0.24;100.00
47104;BME280;32853;52.164;5.400;2022-12-13T16:05:04;100906.91;;;0.26;100.00
47104;BME280;32853;52.164;5.400;2022-12-13T16:07:31;100900.94;;;0.43;100.00
47104;BME280;32853;52.164;5.400;2022-12-13T16:10:15;100893.16;;;0.21;100.00
47104;BME280;32853;52.164;5.400;2022-12-13T16:12:43;100900.88;;;0.15;100.00
47104;BME280;32853;52.164;5.400;2022-12-13T16:15:31;100901.75;;;0.17;100.00
47104;BME280;32853;52.164;5.400;2022-12-13T16:21:00;100899.13;;;0.10;100.00
47104;BME280;32853;52.164;5.400;2022-12-13T16:23:51;100897.44;;;0.16;100.00
47104;BME280;32853;52.164;5.400;2022-12-13T16:29:25;100888.84;;;0.10;100.00